Terminal Aerodrome Forecast
Issued by NWS

Home | Current Version | Previous Version | Text Only | Print | Product List | Glossary On
Versions: 1 2 3 4 5 6 7 8 9 10 11 12 13 14 15 16 17 18 19
000
FTUS44 KHGX 030913 AAC
TAFSGR
TAF AMD
KSGR 030913Z 0309/0406 04011KT 3SM -RA VCTS OVC015CB
     FM031100 08013KT 4SM SHRA BR SCT007 OVC015
     FM031800 06011KT 3SM TSRA BR SCT004 BKN007 OVC012CB
     FM040000 02007KT 4SM -SHRA BR SCT004 BKN007 OVC012=

USA.gov is the U.S. government's official web portal to all federal, state and local government web resources and services.